createdAt,value
2023-05-20T00:02:21.635Z,69.07
2023-05-20T00:04:49.737Z,69.57
2023-05-20T00:07:17.796Z,69.87
2023-05-20T00:09:46.009Z,69.87
2023-05-20T00:12:13.977Z,69.86
2023-05-20T00:14:42.953Z,70.07
2023-05-20T00:17:10.848Z,70.21
2023-05-20T00:19:38.893Z,70.16
2023-05-20T00:22:08.624Z,70.30
2023-05-20T00:24:36.548Z,70.35
2023-05-20T00:27:04.664Z,70.33
2023-05-20T00:29:34.164Z,70.51
2023-05-20T00:32:04.639Z,70.34
2023-05-20T00:34:33.140Z,70.68
2023-05-20T00:37:01.168Z,71.45
2023-05-20T00:39:30.359Z,73.23
2023-05-20T00:42:00.571Z,73.73
2023-05-20T00:44:28.752Z,73.04
2023-05-20T00:46:56.940Z,75.32
2023-05-20T00:49:25.212Z,74.36
2023-05-20T00:51:53.181Z,73.36
2023-05-20T00:54:22.434Z,73.20
2023-05-20T00:56:51.229Z,77.36
2023-05-20T00:59:19.133Z,78.54
2023-05-20T01:01:47.447Z,78.31
2023-05-20T01:04:15.635Z,76.97
2023-05-20T01:06:46.196Z,76.10
2023-05-20T01:09:14.464Z,75.83
2023-05-20T01:11:51.163Z,76.00
2023-05-20T01:14:23.598Z,75.83
2023-05-20T01:17:28.486Z,75.71
2023-05-20T01:21:13.416Z,75.68
2023-05-20T01:24:25.475Z,75.98
2023-05-20T01:27:46.382Z,75.61
2023-05-20T01:31:06.473Z,75.77
2023-05-20T01:34:45.781Z,75.73
2023-05-20T01:38:22.978Z,75.21
2023-05-20T01:42:17.412Z,75.12
2023-05-20T01:45:51.480Z,75.02
2023-05-20T01:49:26.323Z,74.86
2023-05-20T01:52:49.494Z,74.95
2023-05-20T01:56:08.416Z,75.03
2023-05-20T01:59:54.101Z,74.90
2023-05-20T02:06:57.062Z,75.15
2023-05-20T02:10:26.121Z,74.92
2023-05-20T02:14:13.748Z,75.13
2023-05-20T02:55:29.362Z,75.81
2023-05-20T03:02:20.369Z,76.06
2023-05-20T03:08:42.346Z,77.91
2023-05-20T03:15:34.824Z,79.91
2023-05-20T03:18:42.387Z,78.79
2023-05-20T03:22:15.379Z,78.63
2023-05-20T03:25:47.660Z,79.23
2023-05-20T03:29:18.380Z,78.70
2023-05-20T03:32:22.411Z,78.53
2023-05-20T03:35:34.637Z,78.10
2023-05-20T03:38:39.378Z,78.13
2023-05-20T03:42:25.316Z,77.52
2023-05-20T03:45:42.364Z,77.33
2023-05-20T03:49:00.358Z,77.11
2023-05-20T03:52:36.334Z,78.23
2023-05-20T03:56:16.365Z,79.46
2023-05-20T03:59:39.382Z,77.96
2023-05-20T04:02:36.485Z,77.80
2023-05-20T04:05:53.346Z,78.12
2023-05-20T04:09:15.319Z,77.77
2023-05-20T04:12:15.458Z,77.86
2023-05-20T04:16:07.837Z,77.80
2023-05-20T04:20:02.445Z,77.74
2023-05-20T04:23:11.392Z,77.68
2023-05-20T04:26:34.356Z,79.98
2023-05-20T04:30:16.746Z,80.64
2023-05-20T04:33:56.387Z,79.85
2023-05-20T04:41:06.906Z,79.75
2023-05-20T04:45:35.136Z,78.90
2023-05-20T04:52:54.413Z,78.33
2023-05-20T04:56:39.687Z,77.88
2023-05-20T05:00:12.661Z,77.50
2023-05-20T05:03:19.422Z,77.20
2023-05-20T05:07:06.377Z,77.35
2023-05-20T05:10:31.388Z,77.15
2023-05-20T05:13:40.328Z,77.11
2023-05-20T05:16:54.832Z,76.84
2023-05-20T05:20:09.513Z,76.75
2023-05-20T05:23:26.359Z,76.88
2023-05-20T05:26:38.709Z,76.90
2023-05-20T05:29:59.034Z,76.84
2023-05-20T05:33:02.469Z,76.74
2023-05-20T05:36:08.406Z,76.03
2023-05-20T05:39:34.310Z,75.70
2023-05-20T05:43:04.389Z,75.79
2023-05-20T05:47:13.424Z,75.51
2023-05-20T05:51:00.106Z,74.69
2023-05-20T05:55:05.382Z,73.08
2023-05-20T05:59:07.384Z,71.67
2023-05-20T06:02:45.633Z,72.32
2023-05-20T06:06:32.344Z,71.72
2023-05-20T06:09:58.535Z,71.61
2023-05-20T06:13:08.388Z,71.88
2023-05-20T06:17:05.519Z,72.05
2023-05-20T06:20:23.424Z,71.66
2023-05-20T06:24:28.449Z,71.63
2023-05-20T06:27:56.348Z,69.15
2023-05-20T06:31:20.802Z,68.29
2023-05-20T06:34:33.367Z,68.79
2023-05-20T06:37:58.455Z,67.94
2023-05-20T06:41:12.434Z,68.22
2023-05-20T06:44:39.384Z,67.14
2023-05-20T06:48:12.335Z,67.49
2023-05-20T06:51:43.412Z,66.84
2023-05-20T06:55:15.357Z,65.54
2023-05-20T06:58:35.437Z,65.98
2023-05-20T07:02:00.467Z,65.62
2023-05-20T07:08:50.385Z,64.43
2023-05-20T07:11:48.148Z,60.64
2023-05-20T07:14:55.429Z,59.47
2023-05-20T07:18:57.535Z,58.80
2023-05-20T07:22:17.368Z,58.49
2023-05-20T07:25:47.366Z,57.18
2023-05-20T07:28:56.424Z,57.96
2023-05-20T07:32:25.365Z,56.86
2023-05-20T07:36:14.169Z,57.29
2023-05-20T07:39:27.822Z,57.15
2023-05-20T07:42:44.750Z,56.43
2023-05-20T07:45:36.455Z,56.34
2023-05-20T07:48:05.705Z,56.20
2023-05-20T07:51:00.396Z,52.59
2023-05-20T07:54:31.545Z,48.86
2023-05-20T07:57:59.351Z,48.27
2023-05-20T08:01:23.505Z,48.96
2023-05-20T08:04:28.397Z,49.91
2023-05-20T08:07:12.580Z,51.34
2023-05-20T08:10:17.822Z,50.20
2023-05-20T08:13:18.384Z,48.97
2023-05-20T08:16:41.438Z,47.70
2023-05-20T08:19:40.437Z,48.64
2023-05-20T08:22:46.401Z,49.30
2023-05-20T08:26:03.428Z,46.02
2023-05-20T08:29:12.336Z,46.87
2023-05-20T08:32:18.410Z,48.66
2023-05-20T08:35:30.327Z,47.33
2023-05-20T08:38:48.437Z,47.09
2023-05-20T08:42:04.370Z,45.02
2023-05-20T08:49:06.073Z,43.71
2023-05-20T08:52:02.401Z,43.00
2023-05-20T08:54:58.409Z,42.20
2023-05-20T08:58:00.401Z,43.61
2023-05-20T09:01:27.542Z,45.39
2023-05-20T09:04:34.416Z,44.97
2023-05-20T09:07:42.586Z,45.03
2023-05-20T09:10:56.671Z,45.30
2023-05-20T09:14:10.401Z,45.42
2023-05-20T09:20:15.213Z,43.01
2023-05-20T09:23:25.472Z,42.82
2023-05-20T09:26:54.153Z,43.34
2023-05-20T09:29:54.474Z,41.96
2023-05-20T09:33:04.578Z,42.75
2023-05-20T09:36:26.074Z,42.67
2023-05-20T09:39:14.955Z,42.73
2023-05-20T09:42:28.537Z,40.37
2023-05-20T09:45:42.501Z,40.48
2023-05-20T09:48:32.162Z,38.78
2023-05-20T09:51:43.391Z,38.26
2023-05-20T09:54:49.389Z,37.71
2023-05-20T09:58:19.434Z,36.83
2023-05-20T10:01:19.354Z,37.07
2023-05-20T10:04:49.905Z,36.86
2023-05-20T10:08:11.397Z,38.13
2023-05-20T10:11:28.433Z,37.48
2023-05-20T10:14:50.115Z,37.52
2023-05-20T10:18:09.345Z,37.37
2023-05-20T10:21:29.474Z,36.32
2023-05-20T10:24:26.372Z,34.89
2023-05-20T10:28:09.053Z,34.84
2023-05-20T10:31:55.751Z,34.74
2023-05-20T10:34:48.887Z,35.60
2023-05-20T10:38:17.208Z,36.11
2023-05-20T10:41:27.154Z,35.89
2023-05-20T10:44:21.774Z,34.99
2023-05-20T10:47:25.280Z,33.87
2023-05-20T10:50:24.993Z,34.29
2023-05-20T10:53:21.680Z,33.29
2023-05-20T10:56:07.955Z,32.65
2023-05-20T10:58:43.399Z,30.63
2023-05-20T11:01:33.249Z,30.62
2023-05-20T11:04:25.085Z,30.44
2023-05-20T11:07:35.340Z,29.92
2023-05-20T11:10:28.464Z,30.05
2023-05-20T11:12:57.824Z,29.57
2023-05-20T11:15:30.066Z,28.57
2023-05-20T11:18:06.058Z,28.61
2023-05-20T11:20:37.702Z,28.77
2023-05-20T11:23:14.927Z,28.00
2023-05-20T11:26:03.425Z,28.00
2023-05-20T11:28:53.483Z,27.74
2023-05-20T11:31:44.867Z,27.43
2023-05-20T11:34:36.364Z,27.04
2023-05-20T11:37:31.185Z,27.63
2023-05-20T11:40:08.012Z,27.35
2023-05-20T11:42:37.571Z,26.72
2023-05-20T11:45:39.741Z,26.32
2023-05-20T11:48:10.822Z,27.02
2023-05-20T11:50:43.664Z,26.94
2023-05-20T11:53:18.061Z,26.63
2023-05-20T11:55:57.664Z,25.75
2023-05-20T11:58:29.552Z,24.77
2023-05-20T12:01:22.936Z,25.15
2023-05-20T12:03:51.851Z,25.14
2023-05-20T12:06:21.223Z,25.17
2023-05-20T12:08:52.521Z,24.46
2023-05-20T12:11:28.175Z,24.55
2023-05-20T12:14:14.469Z,23.49
2023-05-20T12:16:54.819Z,23.17
2023-05-20T12:19:25.607Z,22.34
2023-05-20T12:22:30.002Z,21.94
2023-05-20T12:25:13.497Z,21.76
2023-05-20T12:28:03.121Z,22.00
2023-05-20T12:30:31.987Z,21.38
2023-05-20T12:33:28.180Z,21.22
2023-05-20T12:35:56.328Z,20.89
2023-05-20T12:38:45.085Z,20.37
2023-05-20T12:41:33.684Z,21.12
2023-05-20T12:44:02.508Z,21.28
2023-05-20T12:46:40.787Z,22.95
2023-05-20T12:49:11.026Z,25.44
2023-05-20T12:52:22.764Z,28.26
2023-05-20T12:55:18.806Z,32.92
2023-05-20T12:59:11.805Z,37.90
2023-05-20T13:02:02.834Z,43.74
2023-05-20T13:04:54.006Z,46.53
2023-05-20T13:08:12.756Z,48.74
2023-05-20T13:11:41.923Z,52.63
2023-05-20T13:15:03.893Z,54.08
2023-05-20T13:19:03.748Z,53.49
2023-05-20T13:25:58.744Z,56.10
2023-05-20T13:29:32.317Z,56.14
2023-05-20T13:40:01.213Z,67.95
2023-05-20T13:43:11.627Z,65.54
2023-05-20T13:50:06.695Z,64.06
2023-05-20T13:53:15.645Z,62.77
2023-05-20T13:56:33.656Z,62.64
2023-05-20T14:00:00.717Z,63.30
2023-05-20T14:03:37.754Z,63.69
2023-05-20T14:07:13.627Z,64.03
2023-05-20T14:10:23.877Z,62.72
2023-05-20T14:13:40.685Z,62.62
2023-05-20T14:17:12.649Z,63.69
2023-05-20T14:20:13.688Z,64.73
2023-05-20T14:23:45.671Z,66.70
2023-05-20T14:27:14.562Z,66.12
2023-05-20T14:30:31.625Z,65.46
2023-05-20T14:33:34.639Z,72.63
2023-05-20T14:43:29.741Z,72.41
2023-05-20T14:46:45.793Z,71.75
2023-05-20T14:49:56.654Z,70.86
2023-05-20T14:53:06.860Z,70.80
2023-05-20T14:56:11.687Z,70.49
2023-05-20T14:59:48.157Z,69.62
2023-05-20T15:03:25.603Z,69.27
2023-05-20T15:06:33.620Z,69.37
2023-05-20T15:13:22.793Z,69.65
2023-05-20T15:16:38.669Z,69.16
2023-05-20T15:19:34.935Z,68.92
2023-05-20T15:23:22.269Z,68.70
2023-05-20T15:26:56.878Z,68.49
2023-05-20T15:30:19.795Z,68.29
2023-05-20T15:33:51.722Z,67.97
2023-05-20T15:40:14.958Z,67.04
2023-05-20T15:43:31.654Z,65.28
2023-05-20T15:47:03.611Z,64.08
2023-05-20T15:49:59.755Z,63.60
2023-05-20T15:53:12.661Z,63.24
2023-05-20T15:56:45.976Z,63.15
2023-05-20T16:00:16.627Z,64.37
2023-05-20T16:03:37.893Z,64.51
2023-05-20T16:06:46.683Z,64.48
2023-05-20T16:09:58.270Z,64.53
2023-05-20T16:16:45.805Z,65.89
2023-05-20T16:19:44.274Z,64.82
2023-05-20T16:22:33.862Z,62.66
2023-05-20T16:25:14.429Z,60.70
2023-05-20T16:28:03.753Z,60.11
2023-05-20T16:31:01.213Z,58.05
2023-05-20T16:33:47.583Z,56.01
2023-05-20T16:37:29.927Z,54.42
2023-05-20T16:40:52.233Z,51.56
2023-05-20T16:43:36.840Z,50.09
2023-05-20T16:46:41.734Z,48.55
2023-05-20T16:50:59.470Z,47.40
2023-05-20T16:54:26.677Z,46.28
2023-05-20T16:57:40.648Z,45.97
2023-05-20T17:00:52.783Z,46.18
2023-05-20T17:04:06.675Z,46.12
2023-05-20T17:06:54.660Z,46.74
2023-05-20T17:09:49.404Z,47.08
2023-05-20T17:12:42.332Z,47.23
2023-05-20T17:15:28.015Z,47.70
2023-05-20T17:18:32.647Z,49.47
2023-05-20T17:21:35.625Z,51.43
2023-05-20T17:24:46.673Z,51.59
2023-05-20T17:28:29.086Z,52.70
2023-05-20T17:31:49.060Z,54.88
2023-05-20T17:38:13.987Z,56.86
2023-05-20T17:41:10.607Z,56.86
2023-05-20T17:44:07.846Z,58.28
2023-05-20T17:46:40.678Z,59.53
2023-05-20T17:49:25.240Z,59.72
2023-05-20T17:52:20.579Z,60.03
2023-05-20T17:55:28.669Z,60.17
2023-05-20T17:58:37.916Z,60.86
2023-05-20T18:01:37.679Z,61.19
2023-05-20T18:04:29.112Z,61.16
2023-05-20T18:07:33.995Z,63.00
2023-05-20T18:10:42.302Z,62.86
2023-05-20T18:14:11.636Z,63.38
2023-05-20T18:17:14.660Z,64.62
2023-05-20T18:20:16.600Z,65.95
2023-05-20T18:23:25.150Z,66.39
2023-05-20T18:26:23.635Z,66.99
2023-05-20T18:29:18.693Z,66.00
2023-05-20T18:32:04.497Z,66.28
2023-05-20T18:35:04.255Z,67.24
2023-05-20T18:37:55.581Z,69.03
2023-05-20T18:41:11.727Z,69.03
2023-05-20T18:44:07.629Z,67.65
2023-05-20T18:47:18.638Z,67.83
2023-05-20T18:50:36.118Z,70.82
2023-05-20T18:53:39.617Z,71.04
2023-05-20T19:00:07.920Z,70.59
2023-05-20T19:03:11.729Z,70.58
2023-05-20T19:06:36.694Z,72.49
2023-05-20T19:10:32.639Z,72.48
2023-05-20T19:13:43.462Z,75.72
2023-05-20T19:16:57.631Z,76.68
2023-05-20T19:20:15.568Z,74.06
2023-05-20T19:23:40.848Z,75.89
2023-05-20T19:27:10.639Z,77.96
2023-05-20T19:30:22.641Z,78.49
2023-05-20T19:36:23.073Z,78.24
2023-05-20T19:46:52.117Z,76.49
2023-05-20T19:50:08.610Z,75.76
2023-05-20T20:15:15.864Z,80.48
2023-05-20T20:18:07.668Z,80.22
2023-05-20T20:20:59.883Z,79.65
2023-05-20T20:26:37.763Z,79.14
2023-05-20T20:29:08.040Z,78.24
2023-05-20T20:32:08.711Z,78.14
2023-05-20T20:35:10.647Z,78.15
2023-05-20T20:38:19.058Z,78.35
2023-05-20T20:41:24.665Z,78.80
2023-05-20T20:44:17.340Z,78.84
2023-05-20T20:47:23.695Z,78.58
2023-05-20T20:54:20.481Z,78.07
2023-05-20T20:57:50.592Z,77.15
2023-05-20T21:01:21.705Z,77.77
2023-05-20T21:04:30.653Z,79.63
2023-05-20T21:07:30.694Z,79.52
2023-05-20T21:14:39.697Z,79.44
2023-05-20T21:18:22.633Z,79.56
2023-05-20T21:21:56.655Z,79.63
2023-05-20T21:25:16.614Z,79.68
2023-05-20T21:29:01.667Z,79.49
2023-05-20T21:32:13.694Z,79.65
2023-05-20T21:35:33.815Z,79.94
2023-05-20T21:38:47.584Z,79.90
2023-05-20T21:42:15.694Z,80.35
2023-05-20T21:45:47.713Z,79.51
2023-05-20T21:49:24.741Z,80.55
2023-05-20T21:52:58.615Z,79.80
2023-05-20T21:56:18.006Z,79.79
2023-05-20T21:59:46.609Z,79.60
2023-05-20T22:02:59.745Z,79.40
2023-05-20T22:06:05.629Z,79.49
2023-05-20T22:09:34.667Z,79.23
2023-05-20T22:13:09.918Z,78.72
2023-05-20T22:16:27.662Z,78.79
2023-05-20T22:19:48.628Z,78.82
2023-05-20T22:23:09.669Z,78.52
2023-05-20T22:29:57.629Z,78.36
2023-05-20T22:33:12.680Z,78.08
2023-05-20T22:37:07.115Z,77.90
2023-05-20T22:40:34.789Z,78.04
2023-05-20T22:44:33.972Z,77.72
2023-05-20T22:48:29.662Z,77.56
2023-05-20T22:51:24.746Z,77.83
2023-05-20T22:54:49.616Z,78.05
2023-05-20T22:57:59.990Z,77.76
2023-05-20T23:01:25.621Z,77.99
2023-05-20T23:04:43.732Z,78.45
2023-05-20T23:08:00.625Z,80.87
2023-05-20T23:11:20.664Z,79.73
2023-05-20T23:14:32.613Z,79.15
2023-05-20T23:18:11.666Z,78.89
2023-05-20T23:21:24.611Z,80.68
2023-05-20T23:24:45.673Z,84.77
2023-05-20T23:27:45.657Z,82.89
2023-05-20T23:30:56.788Z,82.30
2023-05-20T23:33:55.654Z,81.67
2023-05-20T23:37:13.754Z,81.93
2023-05-20T23:40:37.969Z,82.09
2023-05-20T23:43:59.962Z,81.74
2023-05-20T23:47:20.049Z,81.42
2023-05-20T23:50:48.927Z,81.45
2023-05-20T23:54:19.036Z,81.57
2023-05-20T23:57:49.586Z,82.01
